• Join FlightAware (Why Join?)
  • Login
  • US Flag 
09:36PM EDT


 

Airport Tracker/Info


-or-


 

Live Flight TrackerFlight Track Log ✈ UCA3597 ✈ 06-Oct-2013 ✈ KIAD - KBGM

Flight Track Log - Related Links

Times and Time Zones

All times are in EDT time to prevent confusion due to time zone crossing. See the UCA3597 flight status page for this flight to view local times or setup timezone preferences in your user account.

Time Position Orientation Groundspeed Altitude Reporting Facility
EDT Latitude Longitude Course Direction KTS MPH feet Rate Location/Type
05:49PM 39.2749 -77.3180 19° North  Level Estimated
05:50PM 39.3295 -77.2942 19° North  Level Estimated
05:51PM 39.3841 -77.2704 19° North  Level Estimated
05:52PM 39.4386 -77.2465 19° North  Level Estimated
05:53PM 39.4932 -77.2226 19° North  Level Estimated
05:54PM 39.5477 -77.1987 19° North  Level Estimated
05:55PM 39.6023 -77.1747 19° North  Level Estimated
05:56PM 39.6568 -77.1507 19° North  Level Estimated
05:57PM 39.7113 -77.1266 19° North  Level Estimated
05:58PM 39.7659 -77.1025 19° North  Level Estimated
05:59PM 39.8204 -77.0784 19° North  Level Estimated
06:00PM 39.8749 -77.0542 19° North  Level Estimated
06:01PM 39.9294 -77.0300 19° North  Level Estimated
06:02PM 39.9839 -77.0058 19° North  Level Estimated
06:03PM 40.0384 -76.9815 19° North  Level Estimated
06:04PM 40.0929 -76.9572 19° North  Level Estimated
06:05PM 40.1474 -76.9328 19° North  Level Estimated
06:06PM 40.2019 -76.9084 19° North  Level Estimated
06:07PM 40.2564 -76.8840 19° North  Level Estimated
06:08PM 40.3109 -76.8595 19° North  Level Estimated
06:09PM 40.3653 -76.8350 19° North  Level Estimated
06:10PM 40.4198 -76.8104 19° North  Level Estimated
06:11PM 40.4743 -76.7858 19° North  Level Estimated
06:12PM 40.5287 -76.7612 19° North  Level Estimated
06:13PM 40.5832 -76.7365 19° North  Level Estimated
06:14PM 40.6376 -76.7118 19° North  Level Estimated
06:15PM 40.6921 -76.6870 19° North  Level Estimated
06:16PM 40.7465 -76.6622 19° North  Level Estimated
06:17PM 40.8009 -76.6374 19° North  Level Estimated
06:18PM 40.8554 -76.6125 19° North  Level Estimated
06:19PM 40.9098 -76.5876 19° North  Level Estimated
06:20PM 40.9642 -76.5626 19° North  Level Estimated
06:21PM 41.0186 -76.5376 19° North  Level Estimated
06:22PM 41.0730 -76.5126 19° North  Level Estimated
06:23PM 41.1274 -76.4875 19° North  Level Estimated
06:24PM 41.1818 -76.4624 19° North  Level Estimated
06:25PM 41.2362 -76.4372 19° North  Level Estimated
06:26PM 41.2906 -76.4120 19° North  Level Estimated
06:27PM 41.3450 -76.3867 19° North  Level Estimated
06:28PM 41.3993 -76.3614 19° North  Level Estimated
06:29PM 41.4537 -76.3361 19° North  Level Estimated
06:30PM 41.5081 -76.3107 19° North  Level Estimated
06:31PM 41.5624 -76.2853 19° North  Level Estimated
06:32PM 41.6168 -76.2598 19° North  Level Estimated
06:33PM 41.6711 -76.2343 19° North  Level Estimated
06:34PM 41.7254 -76.2088 19° North  Level Estimated
06:35PM 41.7798 -76.1832 19° North  Level Estimated
06:36PM 41.8341 -76.1575 19° North  Level Estimated
06:37PM 41.8884 -76.1319 19° North  Level Estimated
06:38PM 41.9427 -76.1061 19° North  Level Estimated
06:39PM 41.9971 -76.0804 19° North  Level Estimated
06:40PM 42.0514 -76.0545 19° North  Level Estimated
06:41PM 42.1057 -76.0287 19° North  Level Estimated
06:42PM 42.1600 -76.0028 19° North  Level Estimated
06:43PM 42.2084 -75.9796 19° North  Level Estimated
06:44PM 42.2084 -75.9796 35° Northeast  Level Estimated
06:45PM 42.2084 -75.9796 35° Northeast  Level Estimated
06:46PM 42.2084 -75.9796 35° Northeast  Level Estimated
06:47PM 42.2084 -75.9796 35° Northeast  Level Estimated
06:48PM 42.2084 -75.9796 35° Northeast  Level Estimated
06:49PM 42.2084 -75.9796 35° Northeast  Level Estimated
06:50PM 42.2084 -75.9796 35° Northeast  Level Estimated
06:51PM 42.2084 -75.9796 35° Northeast  Level Estimated
06:52PM 42.2084 -75.9796 35° Northeast  Level Estimated
06:53PM 42.2084 -75.9796 35° Northeast  Level Estimated
06:54PM 42.2084 -75.9796 35° Northeast  Level Estimated
06:55PM 42.2084 -75.9796 35° Northeast  Level Estimated
06:56PM 42.2084 -75.9796 35° Northeast  Level Estimated
06:57PM 42.2084 -75.9796 35° Northeast  Level Estimated
06:58PM 42.2084 -75.9796 35° Northeast  Level Estimated
06:59PM 42.2084 -75.9796 35° Northeast  Level Estimated